sensor_id;sensor_type;location;lat;lon;timestamp;P1;durP1;ratioP1;P2;durP2;ratioP2
6306;SDS011;3186;54.062;9.962;2024-03-23T00:51:19;29.37;;;6.70;;
6306;SDS011;3186;54.062;9.962;2024-03-23T00:53:46;25.50;;;6.37;;
6306;SDS011;3186;54.062;9.962;2024-03-23T00:56:11;22.03;;;5.63;;
6306;SDS011;3186;54.062;9.962;2024-03-23T00:58:37;34.53;;;6.87;;
6306;SDS011;3186;54.062;9.962;2024-03-23T01:01:02;21.00;;;6.17;;
6306;SDS011;3186;54.062;9.962;2024-03-23T01:03:31;18.17;;;6.47;;
6306;SDS011;3186;54.062;9.962;2024-03-23T01:06:00;34.07;;;7.13;;
6306;SDS011;3186;54.062;9.962;2024-03-23T01:08:26;22.07;;;6.07;;
6306;SDS011;3186;54.062;9.962;2024-03-23T01:10:59;24.33;;;7.00;;
6306;SDS011;3186;54.062;9.962;2024-03-23T01:13:26;25.77;;;6.50;;
6306;SDS011;3186;54.062;9.962;2024-03-23T01:15:52;26.63;;;5.87;;
6306;SDS011;3186;54.062;9.962;2024-03-23T01:18:20;23.30;;;6.30;;
6306;SDS011;3186;54.062;9.962;2024-03-23T01:20:46;30.50;;;7.00;;
6306;SDS011;3186;54.062;9.962;2024-03-23T01:23:12;24.93;;;6.07;;
6306;SDS011;3186;54.062;9.962;2024-03-23T01:25:38;20.23;;;5.93;;
6306;SDS011;3186;54.062;9.962;2024-03-23T01:28:04;14.70;;;4.77;;
6306;SDS011;3186;54.062;9.962;2024-03-23T01:30:31;21.93;;;6.00;;
6306;SDS011;3186;54.062;9.962;2024-03-23T01:32:57;18.50;;;5.73;;
6306;SDS011;3186;54.062;9.962;2024-03-23T01:35:23;24.83;;;5.43;;
6306;SDS011;3186;54.062;9.962;2024-03-23T01:37:49;26.43;;;6.13;;
6306;SDS011;3186;54.062;9.962;2024-03-23T01:40:17;21.47;;;6.03;;
6306;SDS011;3186;54.062;9.962;2024-03-23T01:42:42;26.60;;;6.10;;
6306;SDS011;3186;54.062;9.962;2024-03-23T01:45:19;22.60;;;5.73;;
6306;SDS011;3186;54.062;9.962;2024-03-23T01:47:45;23.87;;;5.43;;
6306;SDS011;3186;54.062;9.962;2024-03-23T01:50:11;18.73;;;5.47;;
6306;SDS011;3186;54.062;9.962;2024-03-23T01:52:37;30.57;;;5.73;;
6306;SDS011;3186;54.062;9.962;2024-03-23T01:55:02;26.90;;;5.10;;
6306;SDS011;3186;54.062;9.962;2024-03-23T01:57:28;24.50;;;6.00;;
6306;SDS011;3186;54.062;9.962;2024-03-23T01:59:54;24.07;;;5.40;;
6306;SDS011;3186;54.062;9.962;2024-03-23T02:02:26;23.03;;;5.33;;
6306;SDS011;3186;54.062;9.962;2024-03-23T02:04:51;18.87;;;5.93;;
6306;SDS011;3186;54.062;9.962;2024-03-23T02:07:17;17.60;;;5.60;;
6306;SDS011;3186;54.062;9.962;2024-03-23T02:09:43;20.70;;;5.60;;
6306;SDS011;3186;54.062;9.962;2024-03-23T02:12:09;16.57;;;5.20;;
6306;SDS011;3186;54.062;9.962;2024-03-23T02:14:35;16.33;;;5.03;;
6306;SDS011;3186;54.062;9.962;2024-03-23T02:17:01;18.93;;;5.10;;
6306;SDS011;3186;54.062;9.962;2024-03-23T02:19:26;18.87;;;5.13;;
6306;SDS011;3186;54.062;9.962;2024-03-23T02:21:52;20.33;;;6.00;;
6306;SDS011;3186;54.062;9.962;2024-03-23T02:24:17;17.07;;;5.27;;
6306;SDS011;3186;54.062;9.962;2024-03-23T02:26:43;22.30;;;5.80;;
6306;SDS011;3186;54.062;9.962;2024-03-23T02:29:09;18.87;;;6.00;;
6306;SDS011;3186;54.062;9.962;2024-03-23T02:31:35;22.00;;;6.00;;
6306;SDS011;3186;54.062;9.962;2024-03-23T02:34:01;21.07;;;5.67;;
6306;SDS011;3186;54.062;9.962;2024-03-23T02:36:26;17.87;;;5.33;;
6306;SDS011;3186;54.062;9.962;2024-03-23T02:38:52;16.53;;;5.43;;
6306;SDS011;3186;54.062;9.962;2024-03-23T02:41:17;21.53;;;4.90;;
6306;SDS011;3186;54.062;9.962;2024-03-23T02:43:50;24.87;;;5.67;;
6306;SDS011;3186;54.062;9.962;2024-03-23T02:46:16;23.93;;;6.13;;
6306;SDS011;3186;54.062;9.962;2024-03-23T02:48:41;18.93;;;5.53;;
6306;SDS011;3186;54.062;9.962;2024-03-23T02:51:07;17.57;;;5.33;;
6306;SDS011;3186;54.062;9.962;2024-03-23T02:53:33;17.10;;;5.40;;
6306;SDS011;3186;54.062;9.962;2024-03-23T02:55:59;22.97;;;5.20;;
6306;SDS011;3186;54.062;9.962;2024-03-23T02:58:25;16.20;;;5.13;;
6306;SDS011;3186;54.062;9.962;2024-03-23T03:00:51;21.73;;;5.50;;
6306;SDS011;3186;54.062;9.962;2024-03-23T03:03:16;20.23;;;5.07;;
6306;SDS011;3186;54.062;9.962;2024-03-23T03:05:42;16.93;;;5.47;;
6306;SDS011;3186;54.062;9.962;2024-03-23T03:08:08;13.97;;;5.43;;
6306;SDS011;3186;54.062;9.962;2024-03-23T03:10:33;25.27;;;5.90;;
6306;SDS011;3186;54.062;9.962;2024-03-23T03:13:01;19.50;;;5.10;;
6306;SDS011;3186;54.062;9.962;2024-03-23T03:15:27;17.47;;;5.83;;
6306;SDS011;3186;54.062;9.962;2024-03-23T03:17:53;17.90;;;5.67;;
6306;SDS011;3186;54.062;9.962;2024-03-23T03:20:19;17.23;;;5.77;;
6306;SDS011;3186;54.062;9.962;2024-03-23T03:22:47;20.60;;;5.97;;
6306;SDS011;3186;54.062;9.962;2024-03-23T03:25:12;22.23;;;6.00;;
6306;SDS011;3186;54.062;9.962;2024-03-23T03:27:38;17.00;;;5.90;;
6306;SDS011;3186;54.062;9.962;2024-03-23T03:30:04;25.53;;;6.53;;
6306;SDS011;3186;54.062;9.962;2024-03-23T03:32:32;20.23;;;5.90;;
6306;SDS011;3186;54.062;9.962;2024-03-23T03:34:57;22.67;;;6.10;;
6306;SDS011;3186;54.062;9.962;2024-03-23T03:37:23;18.97;;;6.10;;
6306;SDS011;3186;54.062;9.962;2024-03-23T03:39:49;14.03;;;5.53;;
6306;SDS011;3186;54.062;9.962;2024-03-23T03:42:15;17.00;;;5.43;;
6306;SDS011;3186;54.062;9.962;2024-03-23T03:44:40;18.00;;;6.03;;
6306;SDS011;3186;54.062;9.962;2024-03-23T03:47:06;19.87;;;5.83;;
6306;SDS011;3186;54.062;9.962;2024-03-23T03:49:32;20.87;;;5.83;;
6306;SDS011;3186;54.062;9.962;2024-03-23T03:51:58;18.87;;;4.97;;
6306;SDS011;3186;54.062;9.962;2024-03-23T03:54:23;17.87;;;5.43;;
6306;SDS011;3186;54.062;9.962;2024-03-23T03:56:49;18.60;;;5.63;;
6306;SDS011;3186;54.062;9.962;2024-03-23T03:59:15;16.23;;;5.60;;
6306;SDS011;3186;54.062;9.962;2024-03-23T04:01:41;18.73;;;5.47;;
6306;SDS011;3186;54.062;9.962;2024-03-23T04:04:06;19.13;;;5.97;;
6306;SDS011;3186;54.062;9.962;2024-03-23T04:06:32;16.37;;;5.00;;
6306;SDS011;3186;54.062;9.962;2024-03-23T04:08:58;18.30;;;5.10;;
6306;SDS011;3186;54.062;9.962;2024-03-23T04:11:24;12.30;;;4.73;;
6306;SDS011;3186;54.062;9.962;2024-03-23T04:13:50;19.87;;;5.67;;
6306;SDS011;3186;54.062;9.962;2024-03-23T04:16:28;23.23;;;6.03;;
6306;SDS011;3186;54.062;9.962;2024-03-23T04:18:55;20.37;;;5.70;;
6306;SDS011;3186;54.062;9.962;2024-03-23T04:21:21;19.20;;;5.87;;
6306;SDS011;3186;54.062;9.962;2024-03-23T04:23:48;16.37;;;5.43;;
6306;SDS011;3186;54.062;9.962;2024-03-23T04:26:13;17.07;;;5.50;;
6306;SDS011;3186;54.062;9.962;2024-03-23T04:28:40;27.27;;;5.53;;
6306;SDS011;3186;54.062;9.962;2024-03-23T04:31:05;24.10;;;5.93;;
6306;SDS011;3186;54.062;9.962;2024-03-23T04:33:31;24.57;;;6.80;;
6306;SDS011;3186;54.062;9.962;2024-03-23T04:35:57;18.00;;;5.33;;
6306;SDS011;3186;54.062;9.962;2024-03-23T04:38:22;25.73;;;6.37;;
6306;SDS011;3186;54.062;9.962;2024-03-23T04:40:55;20.47;;;5.73;;
6306;SDS011;3186;54.062;9.962;2024-03-23T04:43:25;21.37;;;5.60;;
6306;SDS011;3186;54.062;9.962;2024-03-23T04:45:51;19.07;;;5.73;;
6306;SDS011;3186;54.062;9.962;2024-03-23T04:48:19;28.33;;;6.00;;
6306;SDS011;3186;54.062;9.962;2024-03-23T04:50:47;18.43;;;6.63;;
6306;SDS011;3186;54.062;9.962;2024-03-23T04:53:14;24.60;;;5.90;;
6306;SDS011;3186;54.062;9.962;2024-03-23T04:55:40;20.53;;;5.87;;
6306;SDS011;3186;54.062;9.962;2024-03-23T04:58:06;20.60;;;5.77;;
6306;SDS011;3186;54.062;9.962;2024-03-23T05:00:32;26.67;;;5.90;;
6306;SDS011;3186;54.062;9.962;2024-03-23T05:02:58;22.40;;;6.20;;
6306;SDS011;3186;54.062;9.962;2024-03-23T05:05:23;26.40;;;6.13;;
6306;SDS011;3186;54.062;9.962;2024-03-23T05:07:49;22.93;;;6.90;;
6306;SDS011;3186;54.062;9.962;2024-03-23T05:10:14;20.57;;;6.03;;
6306;SDS011;3186;54.062;9.962;2024-03-23T05:12:40;25.27;;;5.77;;
6306;SDS011;3186;54.062;9.962;2024-03-23T05:15:06;19.07;;;6.00;;
6306;SDS011;3186;54.062;9.962;2024-03-23T05:17:34;18.57;;;6.07;;
6306;SDS011;3186;54.062;9.962;2024-03-23T05:20:01;20.50;;;6.13;;
6306;SDS011;3186;54.062;9.962;2024-03-23T05:22:27;22.43;;;6.33;;
6306;SDS011;3186;54.062;9.962;2024-03-23T05:24:53;26.33;;;6.90;;
6306;SDS011;3186;54.062;9.962;2024-03-23T05:27:18;24.17;;;6.73;;
6306;SDS011;3186;54.062;9.962;2024-03-23T05:29:44;20.00;;;6.17;;
6306;SDS011;3186;54.062;9.962;2024-03-23T05:32:10;15.00;;;5.50;;
6306;SDS011;3186;54.062;9.962;2024-03-23T05:34:35;22.80;;;6.07;;
6306;SDS011;3186;54.062;9.962;2024-03-23T05:37:01;30.30;;;6.63;;
6306;SDS011;3186;54.062;9.962;2024-03-23T05:39:27;23.67;;;6.67;;
6306;SDS011;3186;54.062;9.962;2024-03-23T05:41:52;19.43;;;6.07;;
6306;SDS011;3186;54.062;9.962;2024-03-23T05:44:18;31.77;;;6.17;;
6306;SDS011;3186;54.062;9.962;2024-03-23T05:46:43;23.93;;;6.43;;
6306;SDS011;3186;54.062;9.962;2024-03-23T05:49:13;13.03;;;5.50;;
6306;SDS011;3186;54.062;9.962;2024-03-23T05:51:40;21.97;;;6.20;;
6306;SDS011;3186;54.062;9.962;2024-03-23T05:54:06;18.80;;;6.57;;
6306;SDS011;3186;54.062;9.962;2024-03-23T05:56:31;25.87;;;6.07;;
6306;SDS011;3186;54.062;9.962;2024-03-23T05:58:57;25.47;;;6.20;;
6306;SDS011;3186;54.062;9.962;2024-03-23T06:01:22;17.63;;;5.67;;
6306;SDS011;3186;54.062;9.962;2024-03-23T06:03:48;21.13;;;6.10;;
6306;SDS011;3186;54.062;9.962;2024-03-23T06:06:14;17.47;;;6.03;;
6306;SDS011;3186;54.062;9.962;2024-03-23T06:08:39;19.80;;;6.00;;
6306;SDS011;3186;54.062;9.962;2024-03-23T06:11:05;25.67;;;7.07;;
6306;SDS011;3186;54.062;9.962;2024-03-23T06:13:33;25.53;;;6.80;;
6306;SDS011;3186;54.062;9.962;2024-03-23T06:16:00;27.33;;;6.90;;
6306;SDS011;3186;54.062;9.962;2024-03-23T06:18:29;24.63;;;6.60;;
6306;SDS011;3186;54.062;9.962;2024-03-23T06:20:54;18.60;;;6.47;;
6306;SDS011;3186;54.062;9.962;2024-03-23T06:23:20;23.20;;;6.40;;
6306;SDS011;3186;54.062;9.962;2024-03-23T06:25:46;20.53;;;6.30;;
6306;SDS011;3186;54.062;9.962;2024-03-23T06:28:12;19.10;;;6.60;;
6306;SDS011;3186;54.062;9.962;2024-03-23T06:30:37;24.27;;;6.40;;
6306;SDS011;3186;54.062;9.962;2024-03-23T06:33:03;27.20;;;5.83;;
6306;SDS011;3186;54.062;9.962;2024-03-23T06:35:30;20.90;;;5.93;;
6306;SDS011;3186;54.062;9.962;2024-03-23T06:37:56;22.90;;;6.40;;
6306;SDS011;3186;54.062;9.962;2024-03-23T06:40:23;17.13;;;5.63;;
6306;SDS011;3186;54.062;9.962;2024-03-23T06:42:49;17.73;;;6.20;;
6306;SDS011;3186;54.062;9.962;2024-03-23T06:45:15;20.23;;;5.50;;
6306;SDS011;3186;54.062;9.962;2024-03-23T06:47:41;16.47;;;6.53;;
6306;SDS011;3186;54.062;9.962;2024-03-23T06:50:07;24.23;;;6.53;;
6306;SDS011;3186;54.062;9.962;2024-03-23T06:52:32;28.07;;;6.73;;
6306;SDS011;3186;54.062;9.962;2024-03-23T06:54:58;27.20;;;5.83;;
6306;SDS011;3186;54.062;9.962;2024-03-23T06:57:23;19.97;;;6.17;;
6306;SDS011;3186;54.062;9.962;2024-03-23T06:59:49;10.77;;;5.33;;
6306;SDS011;3186;54.062;9.962;2024-03-23T07:02:15;17.77;;;5.97;;
6306;SDS011;3186;54.062;9.962;2024-03-23T07:04:41;25.33;;;7.37;;
6306;SDS011;3186;54.062;9.962;2024-03-23T07:07:06;18.50;;;6.53;;
6306;SDS011;3186;54.062;9.962;2024-03-23T07:09:32;22.03;;;7.03;;
6306;SDS011;3186;54.062;9.962;2024-03-23T07:11:58;21.13;;;6.63;;
6306;SDS011;3186;54.062;9.962;2024-03-23T07:14:23;27.47;;;7.17;;
6306;SDS011;3186;54.062;9.962;2024-03-23T07:16:49;23.30;;;6.77;;
6306;SDS011;3186;54.062;9.962;2024-03-23T07:19:16;22.13;;;6.13;;
6306;SDS011;3186;54.062;9.962;2024-03-23T07:21:42;21.63;;;6.83;;
6306;SDS011;3186;54.062;9.962;2024-03-23T07:24:09;18.03;;;7.03;;
6306;SDS011;3186;54.062;9.962;2024-03-23T07:26:35;24.33;;;7.43;;
6306;SDS011;3186;54.062;9.962;2024-03-23T07:29:02;22.90;;;7.27;;
6306;SDS011;3186;54.062;9.962;2024-03-23T07:31:28;26.90;;;7.03;;
6306;SDS011;3186;54.062;9.962;2024-03-23T07:33:54;30.57;;;7.17;;
6306;SDS011;3186;54.062;9.962;2024-03-23T07:36:20;22.43;;;6.90;;
6306;SDS011;3186;54.062;9.962;2024-03-23T07:38:45;24.33;;;6.90;;
6306;SDS011;3186;54.062;9.962;2024-03-23T07:41:11;26.47;;;7.77;;
6306;SDS011;3186;54.062;9.962;2024-03-23T07:43:42;33.73;;;8.27;;
6306;SDS011;3186;54.062;9.962;2024-03-23T07:46:08;28.17;;;8.30;;
6306;SDS011;3186;54.062;9.962;2024-03-23T07:48:34;20.07;;;6.63;;
6306;SDS011;3186;54.062;9.962;2024-03-23T07:53:54;24.30;;;7.93;;
6306;SDS011;3186;54.062;9.962;2024-03-23T07:56:20;32.40;;;7.97;;
6306;SDS011;3186;54.062;9.962;2024-03-23T07:58:46;30.63;;;8.27;;
6306;SDS011;3186;54.062;9.962;2024-03-23T08:01:13;33.13;;;8.20;;
6306;SDS011;3186;54.062;9.962;2024-03-23T08:03:41;29.83;;;7.93;;
6306;SDS011;3186;54.062;9.962;2024-03-23T08:06:11;22.70;;;7.80;;
6306;SDS011;3186;54.062;9.962;2024-03-23T08:08:37;31.60;;;8.77;;
6306;SDS011;3186;54.062;9.962;2024-03-23T08:11:03;33.00;;;8.57;;
6306;SDS011;3186;54.062;9.962;2024-03-23T08:13:29;27.33;;;7.63;;
6306;SDS011;3186;54.062;9.962;2024-03-23T08:15:58;21.70;;;7.00;;
6306;SDS011;3186;54.062;9.962;2024-03-23T08:18:25;32.50;;;7.03;;
6306;SDS011;3186;54.062;9.962;2024-03-23T08:21:01;29.37;;;7.87;;
6306;SDS011;3186;54.062;9.962;2024-03-23T08:23:28;21.40;;;6.87;;
6306;SDS011;3186;54.062;9.962;2024-03-23T08:25:58;23.40;;;7.03;;
6306;SDS011;3186;54.062;9.962;2024-03-23T08:28:25;25.50;;;7.63;;
6306;SDS011;3186;54.062;9.962;2024-03-23T08:30:52;25.00;;;6.90;;
6306;SDS011;3186;54.062;9.962;2024-03-23T08:33:18;23.30;;;7.20;;
6306;SDS011;3186;54.062;9.962;2024-03-23T08:35:54;20.73;;;6.73;;
6306;SDS011;3186;54.062;9.962;2024-03-23T08:38:21;24.37;;;7.80;;
6306;SDS011;3186;54.062;9.962;2024-03-23T08:40:48;37.10;;;7.90;;
6306;SDS011;3186;54.062;9.962;2024-03-23T08:43:21;16.77;;;6.10;;
6306;SDS011;3186;54.062;9.962;2024-03-23T08:45:46;21.50;;;6.77;;
6306;SDS011;3186;54.062;9.962;2024-03-23T08:48:12;23.17;;;7.20;;
6306;SDS011;3186;54.062;9.962;2024-03-23T08:50:37;17.13;;;6.37;;
6306;SDS011;3186;54.062;9.962;2024-03-23T08:53:03;19.27;;;5.90;;
6306;SDS011;3186;54.062;9.962;2024-03-23T08:55:29;28.57;;;6.80;;
6306;SDS011;3186;54.062;9.962;2024-03-23T08:57:55;23.10;;;6.23;;
6306;SDS011;3186;54.062;9.962;2024-03-23T09:00:21;12.93;;;4.90;;
6306;SDS011;3186;54.062;9.962;2024-03-23T09:02:47;14.00;;;4.97;;
6306;SDS011;3186;54.062;9.962;2024-03-23T09:05:13;22.37;;;5.10;;
6306;SDS011;3186;54.062;9.962;2024-03-23T09:07:39;10.33;;;3.93;;
6306;SDS011;3186;54.062;9.962;2024-03-23T09:10:04;11.97;;;3.67;;
6306;SDS011;3186;54.062;9.962;2024-03-23T09:12:30;9.13;;;3.17;;
6306;SDS011;3186;54.062;9.962;2024-03-23T09:14:56;9.87;;;3.50;;
6306;SDS011;3186;54.062;9.962;2024-03-23T09:17:21;16.07;;;4.30;;
6306;SDS011;3186;54.062;9.962;2024-03-23T09:19:47;13.50;;;4.20;;
6306;SDS011;3186;54.062;9.962;2024-03-23T09:22:13;11.77;;;3.57;;
6306;SDS011;3186;54.062;9.962;2024-03-23T09:24:39;11.10;;;3.63;;
6306;SDS011;3186;54.062;9.962;2024-03-23T09:27:04;22.57;;;5.10;;
6306;SDS011;3186;54.062;9.962;2024-03-23T09:29:30;15.80;;;4.47;;
6306;SDS011;3186;54.062;9.962;2024-03-23T09:31:56;17.87;;;4.60;;
6306;SDS011;3186;54.062;9.962;2024-03-23T09:34:21;20.43;;;5.17;;
6306;SDS011;3186;54.062;9.962;2024-03-23T09:36:50;14.03;;;4.73;;
6306;SDS011;3186;54.062;9.962;2024-03-23T09:39:16;20.93;;;5.10;;
6306;SDS011;3186;54.062;9.962;2024-03-23T09:41:42;16.03;;;4.70;;
6306;SDS011;3186;54.062;9.962;2024-03-23T09:44:08;19.87;;;5.00;;
6306;SDS011;3186;54.062;9.962;2024-03-23T09:46:34;18.00;;;4.53;;
6306;SDS011;3186;54.062;9.962;2024-03-23T09:49:01;14.83;;;4.53;;
6306;SDS011;3186;54.062;9.962;2024-03-23T09:51:30;17.87;;;5.60;;
6306;SDS011;3186;54.062;9.962;2024-03-23T09:53:56;19.47;;;5.07;;
6306;SDS011;3186;54.062;9.962;2024-03-23T09:56:22;17.40;;;4.87;;
6306;SDS011;3186;54.062;9.962;2024-03-23T09:58:48;23.27;;;5.40;;
6306;SDS011;3186;54.062;9.962;2024-03-23T10:01:14;18.27;;;5.33;;
6306;SDS011;3186;54.062;9.962;2024-03-23T10:03:46;19.80;;;4.90;;
6306;SDS011;3186;54.062;9.962;2024-03-23T10:06:12;24.13;;;5.07;;
6306;SDS011;3186;54.062;9.962;2024-03-23T10:08:37;20.70;;;5.07;;
6306;SDS011;3186;54.062;9.962;2024-03-23T10:11:14;19.03;;;4.43;;
6306;SDS011;3186;54.062;9.962;2024-03-23T10:13:43;16.90;;;4.63;;
6306;SDS011;3186;54.062;9.962;2024-03-23T10:16:11;13.70;;;3.60;;
6306;SDS011;3186;54.062;9.962;2024-03-23T10:18:37;12.10;;;4.47;;
6306;SDS011;3186;54.062;9.962;2024-03-23T10:21:07;13.17;;;4.17;;
6306;SDS011;3186;54.062;9.962;2024-03-23T10:23:36;13.87;;;4.27;;
6306;SDS011;3186;54.062;9.962;2024-03-23T10:26:18;12.63;;;3.83;;
6306;SDS011;3186;54.062;9.962;2024-03-23T10:28:52;13.93;;;3.60;;
6306;SDS011;3186;54.062;9.962;2024-03-23T10:31:23;18.53;;;3.97;;
6306;SDS011;3186;54.062;9.962;2024-03-23T10:33:49;18.63;;;3.80;;
6306;SDS011;3186;54.062;9.962;2024-03-23T10:36:15;11.10;;;3.20;;
6306;SDS011;3186;54.062;9.962;2024-03-23T10:38:41;13.93;;;3.70;;
6306;SDS011;3186;54.062;9.962;2024-03-23T10:41:08;20.40;;;3.70;;
6306;SDS011;3186;54.062;9.962;2024-03-23T10:43:37;16.07;;;3.53;;
6306;SDS011;3186;54.062;9.962;2024-03-23T10:46:04;12.23;;;3.30;;
6306;SDS011;3186;54.062;9.962;2024-03-23T10:48:31;14.27;;;3.63;;
6306;SDS011;3186;54.062;9.962;2024-03-23T10:50:57;7.30;;;2.63;;
6306;SDS011;3186;54.062;9.962;2024-03-23T10:53:25;17.20;;;3.60;;
6306;SDS011;3186;54.062;9.962;2024-03-23T10:55:51;17.77;;;4.13;;
6306;SDS011;3186;54.062;9.962;2024-03-23T10:58:19;15.77;;;3.73;;
6306;SDS011;3186;54.062;9.962;2024-03-23T11:00:57;15.13;;;4.30;;
6306;SDS011;3186;54.062;9.962;2024-03-23T11:03:32;14.70;;;3.20;;
6306;SDS011;3186;54.062;9.962;2024-03-23T11:06:00;12.53;;;3.73;;
6306;SDS011;3186;54.062;9.962;2024-03-23T11:08:33;16.40;;;3.87;;
6306;SDS011;3186;54.062;9.962;2024-03-23T11:11:16;16.80;;;3.33;;
6306;SDS011;3186;54.062;9.962;2024-03-23T11:13:44;14.47;;;4.00;;
6306;SDS011;3186;54.062;9.962;2024-03-23T11:16:12;10.20;;;3.40;;
6306;SDS011;3186;54.062;9.962;2024-03-23T11:18:39;11.43;;;3.63;;
6306;SDS011;3186;54.062;9.962;2024-03-23T11:21:06;13.23;;;3.47;;
6306;SDS011;3186;54.062;9.962;2024-03-23T11:23:32;14.40;;;3.47;;
6306;SDS011;3186;54.062;9.962;2024-03-23T11:25:58;12.73;;;3.43;;
6306;SDS011;3186;54.062;9.962;2024-03-23T11:28:23;16.77;;;3.40;;
6306;SDS011;3186;54.062;9.962;2024-03-23T11:30:49;11.67;;;3.50;;
6306;SDS011;3186;54.062;9.962;2024-03-23T11:33:14;12.43;;;3.10;;
6306;SDS011;3186;54.062;9.962;2024-03-23T11:35:41;11.70;;;2.93;;
6306;SDS011;3186;54.062;9.962;2024-03-23T11:38:08;9.40;;;3.20;;
6306;SDS011;3186;54.062;9.962;2024-03-23T11:40:36;16.23;;;3.27;;
6306;SDS011;3186;54.062;9.962;2024-03-23T11:43:12;15.17;;;3.60;;
6306;SDS011;3186;54.062;9.962;2024-03-23T11:45:39;18.93;;;4.33;;
6306;SDS011;3186;54.062;9.962;2024-03-23T11:48:08;13.90;;;3.23;;
6306;SDS011;3186;54.062;9.962;2024-03-23T11:50:43;7.83;;;3.00;;
6306;SDS011;3186;54.062;9.962;2024-03-23T11:53:13;14.03;;;3.27;;
6306;SDS011;3186;54.062;9.962;2024-03-23T11:58:14;11.27;;;3.03;;
6306;SDS011;3186;54.062;9.962;2024-03-23T12:00:41;13.67;;;3.30;;
6306;SDS011;3186;54.062;9.962;2024-03-23T12:03:15;14.17;;;3.33;;
6306;SDS011;3186;54.062;9.962;2024-03-23T12:05:41;12.03;;;3.20;;
6306;SDS011;3186;54.062;9.962;2024-03-23T12:10:47;5.33;;;2.03;;
6306;SDS011;3186;54.062;9.962;2024-03-23T12:13:44;6.07;;;1.77;;
6306;SDS011;3186;54.062;9.962;2024-03-23T12:18:42;5.03;;;1.60;;
6306;SDS011;3186;54.062;9.962;2024-03-23T12:21:09;5.83;;;1.90;;
6306;SDS011;3186;54.062;9.962;2024-03-23T12:23:34;3.77;;;1.43;;
6306;SDS011;3186;54.062;9.962;2024-03-23T12:26:01;7.03;;;2.00;;
6306;SDS011;3186;54.062;9.962;2024-03-23T12:28:27;3.67;;;1.43;;
6306;SDS011;3186;54.062;9.962;2024-03-23T12:30:52;6.17;;;1.70;;
6306;SDS011;3186;54.062;9.962;2024-03-23T12:33:19;9.33;;;2.10;;
6306;SDS011;3186;54.062;9.962;2024-03-23T12:35:49;5.90;;;1.90;;
6306;SDS011;3186;54.062;9.962;2024-03-23T12:38:16;8.53;;;2.53;;
6306;SDS011;3186;54.062;9.962;2024-03-23T12:40:42;7.10;;;2.50;;
6306;SDS011;3186;54.062;9.962;2024-03-23T12:43:13;11.93;;;3.20;;
6306;SDS011;3186;54.062;9.962;2024-03-23T12:45:38;9.33;;;3.17;;
6306;SDS011;3186;54.062;9.962;2024-03-23T12:48:04;13.37;;;3.23;;
6306;SDS011;3186;54.062;9.962;2024-03-23T12:50:30;11.63;;;2.67;;
6306;SDS011;3186;54.062;9.962;2024-03-23T12:52:56;13.70;;;2.70;;
6306;SDS011;3186;54.062;9.962;2024-03-23T12:55:21;9.37;;;3.37;;
6306;SDS011;3186;54.062;9.962;2024-03-23T12:57:47;11.63;;;3.53;;
6306;SDS011;3186;54.062;9.962;2024-03-23T13:00:13;11.97;;;3.87;;
6306;SDS011;3186;54.062;9.962;2024-03-23T13:02:40;12.73;;;3.10;;
6306;SDS011;3186;54.062;9.962;2024-03-23T13:05:06;14.37;;;3.20;;
6306;SDS011;3186;54.062;9.962;2024-03-23T13:07:33;9.83;;;3.23;;
6306;SDS011;3186;54.062;9.962;2024-03-23T13:10:00;8.20;;;2.77;;
6306;SDS011;3186;54.062;9.962;2024-03-23T13:12:26;8.53;;;2.83;;
6306;SDS011;3186;54.062;9.962;2024-03-23T13:14:51;8.33;;;3.17;;
6306;SDS011;3186;54.062;9.962;2024-03-23T13:17:17;11.03;;;3.73;;
6306;SDS011;3186;54.062;9.962;2024-03-23T13:19:43;12.80;;;3.20;;
6306;SDS011;3186;54.062;9.962;2024-03-23T13:22:09;9.37;;;3.17;;
6306;SDS011;3186;54.062;9.962;2024-03-23T13:24:36;12.30;;;3.50;;
6306;SDS011;3186;54.062;9.962;2024-03-23T13:27:03;12.17;;;3.17;;
6306;SDS011;3186;54.062;9.962;2024-03-23T13:29:30;14.77;;;3.47;;
6306;SDS011;3186;54.062;9.962;2024-03-23T13:31:56;16.23;;;3.80;;
6306;SDS011;3186;54.062;9.962;2024-03-23T13:34:21;11.97;;;3.13;;
6306;SDS011;3186;54.062;9.962;2024-03-23T13:36:47;8.70;;;3.40;;
6306;SDS011;3186;54.062;9.962;2024-03-23T13:39:13;13.63;;;3.73;;
6306;SDS011;3186;54.062;9.962;2024-03-23T13:41:41;16.57;;;4.00;;
6306;SDS011;3186;54.062;9.962;2024-03-23T13:44:09;11.87;;;3.23;;
6306;SDS011;3186;54.062;9.962;2024-03-23T13:46:36;9.90;;;3.17;;
6306;SDS011;3186;54.062;9.962;2024-03-23T13:49:02;14.17;;;3.60;;
6306;SDS011;3186;54.062;9.962;2024-03-23T13:51:28;7.13;;;3.20;;
6306;SDS011;3186;54.062;9.962;2024-03-23T13:53:54;10.80;;;3.57;;
6306;SDS011;3186;54.062;9.962;2024-03-23T13:56:21;9.27;;;3.20;;
6306;SDS011;3186;54.062;9.962;2024-03-23T13:58:47;18.77;;;3.53;;
6306;SDS011;3186;54.062;9.962;2024-03-23T14:01:13;11.77;;;3.53;;
6306;SDS011;3186;54.062;9.962;2024-03-23T14:03:40;10.93;;;3.43;;
6306;SDS011;3186;54.062;9.962;2024-03-23T14:06:07;14.07;;;2.90;;
6306;SDS011;3186;54.062;9.962;2024-03-23T14:08:33;9.60;;;3.27;;
6306;SDS011;3186;54.062;9.962;2024-03-23T14:11:07;15.13;;;3.30;;
6306;SDS011;3186;54.062;9.962;2024-03-23T14:13:34;13.73;;;3.53;;
6306;SDS011;3186;54.062;9.962;2024-03-23T14:16:00;7.70;;;3.60;;
6306;SDS011;3186;54.062;9.962;2024-03-23T14:18:26;17.43;;;3.87;;
6306;SDS011;3186;54.062;9.962;2024-03-23T14:20:52;13.67;;;3.07;;
6306;SDS011;3186;54.062;9.962;2024-03-23T14:23:28;8.57;;;3.13;;
6306;SDS011;3186;54.062;9.962;2024-03-23T14:26:03;8.37;;;2.93;;
6306;SDS011;3186;54.062;9.962;2024-03-23T14:28:28;10.33;;;3.00;;
6306;SDS011;3186;54.062;9.962;2024-03-23T14:30:55;10.33;;;3.03;;
6306;SDS011;3186;54.062;9.962;2024-03-23T14:33:21;11.77;;;3.33;;
6306;SDS011;3186;54.062;9.962;2024-03-23T14:35:56;11.37;;;3.23;;
6306;SDS011;3186;54.062;9.962;2024-03-23T14:38:22;11.50;;;3.30;;
6306;SDS011;3186;54.062;9.962;2024-03-23T14:40:48;16.80;;;3.80;;
6306;SDS011;3186;54.062;9.962;2024-03-23T14:43:14;17.23;;;4.23;;
6306;SDS011;3186;54.062;9.962;2024-03-23T14:48:38;14.63;;;3.43;;
6306;SDS011;3186;54.062;9.962;2024-03-23T14:51:04;10.90;;;3.30;;
6306;SDS011;3186;54.062;9.962;2024-03-23T14:53:31;18.23;;;3.77;;
6306;SDS011;3186;54.062;9.962;2024-03-23T14:55:58;14.60;;;4.23;;
6306;SDS011;3186;54.062;9.962;2024-03-23T14:58:25;16.67;;;4.07;;
6306;SDS011;3186;54.062;9.962;2024-03-23T15:00:51;15.33;;;3.77;;
6306;SDS011;3186;54.062;9.962;2024-03-23T15:03:17;12.37;;;4.37;;
6306;SDS011;3186;54.062;9.962;2024-03-23T15:05:52;10.37;;;4.13;;
6306;SDS011;3186;54.062;9.962;2024-03-23T15:08:21;11.17;;;3.50;;
6306;SDS011;3186;54.062;9.962;2024-03-23T15:10:47;21.47;;;4.83;;
6306;SDS011;3186;54.062;9.962;2024-03-23T15:13:13;9.90;;;3.60;;
6306;SDS011;3186;54.062;9.962;2024-03-23T15:15:42;14.40;;;4.00;;
6306;SDS011;3186;54.062;9.962;2024-03-23T15:18:10;16.83;;;3.90;;
6306;SDS011;3186;54.062;9.962;2024-03-23T15:20:37;14.77;;;6.60;;
6306;SDS011;3186;54.062;9.962;2024-03-23T15:23:04;12.33;;;4.63;;
6306;SDS011;3186;54.062;9.962;2024-03-23T15:25:29;17.70;;;4.93;;
6306;SDS011;3186;54.062;9.962;2024-03-23T15:27:56;13.17;;;4.13;;
6306;SDS011;3186;54.062;9.962;2024-03-23T15:30:23;17.37;;;4.07;;
6306;SDS011;3186;54.062;9.962;2024-03-23T15:32:49;12.57;;;4.03;;
6306;SDS011;3186;54.062;9.962;2024-03-23T15:35:14;14.43;;;3.50;;
6306;SDS011;3186;54.062;9.962;2024-03-23T15:37:40;7.43;;;2.87;;
6306;SDS011;3186;54.062;9.962;2024-03-23T15:40:06;9.43;;;2.93;;
6306;SDS011;3186;54.062;9.962;2024-03-23T15:42:32;7.97;;;2.53;;
6306;SDS011;3186;54.062;9.962;2024-03-23T15:44:58;7.53;;;2.47;;
6306;SDS011;3186;54.062;9.962;2024-03-23T15:47:24;6.30;;;2.83;;
6306;SDS011;3186;54.062;9.962;2024-03-23T15:49:50;9.90;;;2.50;;
6306;SDS011;3186;54.062;9.962;2024-03-23T15:52:18;7.13;;;2.60;;
6306;SDS011;3186;54.062;9.962;2024-03-23T15:54:44;9.70;;;2.70;;
6306;SDS011;3186;54.062;9.962;2024-03-23T15:57:09;10.23;;;2.60;;
6306;SDS011;3186;54.062;9.962;2024-03-23T15:59:35;7.93;;;2.50;;
6306;SDS011;3186;54.062;9.962;2024-03-23T16:02:04;8.23;;;2.50;;
6306;SDS011;3186;54.062;9.962;2024-03-23T16:04:29;7.63;;;2.67;;